createdAt,value
2019-03-08T00:00:05.823Z,40.10
2019-03-08T00:02:34.287Z,40.10
2019-03-08T00:05:02.809Z,40.20
2019-03-08T00:07:31.272Z,40.20
2019-03-08T00:09:59.800Z,40.40
2019-03-08T00:12:28.252Z,40.10
2019-03-08T00:14:56.744Z,40.00
2019-03-08T00:17:25.266Z,40.10
2019-03-08T00:19:53.723Z,39.50
2019-03-08T00:22:32.525Z,39.40
2019-03-08T00:25:01.015Z,39.40
2019-03-08T00:27:29.487Z,39.60
2019-03-08T00:29:58.027Z,39.90
2019-03-08T00:32:26.635Z,39.70
2019-03-08T00:34:55.107Z,39.30
2019-03-08T00:37:23.599Z,39.50
2019-03-08T00:39:52.116Z,39.60
2019-03-08T00:42:20.677Z,39.60
2019-03-08T00:44:49.136Z,39.60
2019-03-08T00:47:17.845Z,39.60
2019-03-08T00:49:46.380Z,39.80
2019-03-08T00:52:14.840Z,39.50
2019-03-08T00:54:43.366Z,39.60
2019-03-08T00:57:11.828Z,39.60
2019-03-08T00:59:40.412Z,39.60
2019-03-08T01:02:09.353Z,39.80
2019-03-08T01:04:37.876Z,39.50
2019-03-08T01:07:07.245Z,39.30
2019-03-08T01:09:35.722Z,39.00
2019-03-08T01:12:04.205Z,38.90
2019-03-08T01:14:32.681Z,39.10
2019-03-08T01:17:01.164Z,39.00
2019-03-08T01:19:29.683Z,39.20
2019-03-08T01:21:58.169Z,39.50
2019-03-08T01:24:30.574Z,39.90
2019-03-08T01:26:59.111Z,40.00
2019-03-08T01:29:27.601Z,40.10
2019-03-08T01:31:56.083Z,40.40
2019-03-08T01:34:24.903Z,40.40
2019-03-08T01:36:53.364Z,40.40
2019-03-08T01:39:21.914Z,40.40
2019-03-08T01:41:50.445Z,40.20
2019-03-08T01:44:18.999Z,40.20
2019-03-08T01:46:47.469Z,40.20
2019-03-08T01:49:16.223Z,40.20
2019-03-08T01:51:44.683Z,40.70
2019-03-08T01:54:13.139Z,40.00
2019-03-08T01:56:42.894Z,40.10
2019-03-08T01:59:11.802Z,40.10
2019-03-08T02:01:40.276Z,40.00
2019-03-08T02:04:09.053Z,40.00
2019-03-08T02:06:37.522Z,40.00
2019-03-08T02:09:06.099Z,39.80
2019-03-08T02:11:34.589Z,39.90
2019-03-08T02:14:03.055Z,39.80
2019-03-08T02:16:31.575Z,39.70
2019-03-08T02:19:00.579Z,39.70
2019-03-08T02:21:29.102Z,40.30
2019-03-08T02:23:57.586Z,39.70
2019-03-08T02:26:26.063Z,40.40
2019-03-08T02:28:54.615Z,39.70
2019-03-08T02:31:23.132Z,39.90
2019-03-08T02:33:52.091Z,39.80
2019-03-08T02:36:20.607Z,39.70
2019-03-08T02:38:49.469Z,39.20
2019-03-08T02:41:17.984Z,39.70
2019-03-08T02:43:46.425Z,39.60
2019-03-08T02:46:14.890Z,39.60
2019-03-08T02:48:43.456Z,39.70
2019-03-08T02:51:11.947Z,39.70
2019-03-08T02:56:08.700Z,39.60
2019-03-08T02:58:37.298Z,39.40
2019-03-08T03:01:06.205Z,39.50
2019-03-08T03:03:34.889Z,39.20
2019-03-08T03:08:31.720Z,39.40
2019-03-08T03:11:00.237Z,39.70
2019-03-08T03:16:00.073Z,39.50
2019-03-08T03:20:56.973Z,39.00
2019-03-08T03:23:25.497Z,39.30
2019-03-08T03:25:53.951Z,39.40
2019-03-08T03:28:22.487Z,39.70
2019-03-08T03:55:34.203Z,39.60
2019-03-08T03:58:02.730Z,38.20
2019-03-08T04:00:31.200Z,36.00
2019-03-08T04:02:59.761Z,34.50
2019-03-08T04:05:28.290Z,35.50
2019-03-08T04:07:56.792Z,35.90
2019-03-08T04:10:25.260Z,35.70
2019-03-08T04:12:53.763Z,35.90
2019-03-08T04:15:22.400Z,35.80
2019-03-08T04:17:50.874Z,36.10
2019-03-08T04:20:20.391Z,36.00
2019-03-08T04:22:49.088Z,36.10
2019-03-08T04:25:20.430Z,36.20
2019-03-08T04:27:48.954Z,36.40
2019-03-08T04:30:21.334Z,36.40
2019-03-08T04:32:49.809Z,36.40
2019-03-08T04:35:18.289Z,36.40
2019-03-08T04:37:46.775Z,36.40
2019-03-08T04:40:15.313Z,36.50
2019-03-08T04:42:43.785Z,36.50
2019-03-08T04:45:15.060Z,36.60
2019-03-08T04:47:43.532Z,36.50
2019-03-08T04:50:13.241Z,36.60
2019-03-08T04:52:41.735Z,36.50
2019-03-08T04:55:13.506Z,36.20
2019-03-08T04:57:41.970Z,36.70
2019-03-08T05:00:15.439Z,36.70
2019-03-08T05:02:43.976Z,36.70
2019-03-08T05:05:12.491Z,36.80
2019-03-08T05:07:40.964Z,36.80
2019-03-08T05:10:12.548Z,36.80
2019-03-08T05:12:41.524Z,36.80
2019-03-08T05:15:11.150Z,36.80
2019-03-08T05:17:39.603Z,36.80
2019-03-08T05:20:10.125Z,36.80
2019-03-08T05:22:38.601Z,36.90
2019-03-08T05:25:09.505Z,36.90
2019-03-08T05:27:37.994Z,36.90
2019-03-08T05:30:09.918Z,36.90
2019-03-08T05:32:38.404Z,36.90
2019-03-08T05:35:08.671Z,36.90
2019-03-08T05:37:37.187Z,36.90
2019-03-08T05:40:10.625Z,36.90
2019-03-08T05:42:39.151Z,36.90
2019-03-08T05:45:11.652Z,36.90
2019-03-08T05:47:40.172Z,37.00
2019-03-08T05:50:12.516Z,36.80
2019-03-08T05:52:41.788Z,36.90
2019-03-08T05:55:11.340Z,37.40
2019-03-08T05:57:39.811Z,37.10
2019-03-08T06:00:18.093Z,36.90
2019-03-08T06:02:46.564Z,36.90
2019-03-08T06:05:15.076Z,37.00
2019-03-08T06:10:29.101Z,37.10
2019-03-08T06:12:58.113Z,37.90
2019-03-08T06:15:26.732Z,37.30
2019-03-08T06:17:56.469Z,37.30
2019-03-08T06:20:25.332Z,36.80
2019-03-08T06:22:53.795Z,37.30
2019-03-08T06:25:22.402Z,37.40
2019-03-08T06:27:50.868Z,37.40
2019-03-08T06:30:19.399Z,37.50
2019-03-08T06:32:47.955Z,37.50
2019-03-08T06:35:16.433Z,37.50
2019-03-08T06:37:44.904Z,37.60
2019-03-08T06:40:14.060Z,37.70
2019-03-08T06:42:42.606Z,37.70
2019-03-08T06:45:13.808Z,37.70
2019-03-08T06:47:43.282Z,37.80
2019-03-08T06:52:40.768Z,37.80
2019-03-08T06:55:11.908Z,38.60
2019-03-08T06:57:40.513Z,37.90
2019-03-08T07:00:16.951Z,38.00
2019-03-08T07:02:45.596Z,37.90
2019-03-08T07:05:14.105Z,37.90
2019-03-08T07:07:42.682Z,37.90
2019-03-08T07:10:11.495Z,37.80
2019-03-08T07:12:40.015Z,37.80
2019-03-08T07:15:08.491Z,37.80
2019-03-08T07:17:37.885Z,37.80
2019-03-08T07:20:09.340Z,37.80
2019-03-08T07:22:45.343Z,37.80
2019-03-08T07:25:31.954Z,37.80
2019-03-08T07:28:02.191Z,37.80
2019-03-08T07:30:41.306Z,37.90
2019-03-08T07:33:20.159Z,37.40
2019-03-08T07:36:08.692Z,37.80
2019-03-08T07:38:38.904Z,37.80
2019-03-08T07:41:14.729Z,37.70
2019-03-08T07:44:01.529Z,37.70
2019-03-08T07:46:34.591Z,38.30
2019-03-08T07:49:04.770Z,37.70
2019-03-08T07:51:40.729Z,37.70
2019-03-08T07:54:11.496Z,37.70
2019-03-08T07:56:41.623Z,37.70
2019-03-08T07:59:23.981Z,37.70
2019-03-08T08:01:59.818Z,37.70
2019-03-08T08:04:36.192Z,37.70
2019-03-08T08:07:12.229Z,37.60
2019-03-08T08:09:42.335Z,37.40
2019-03-08T08:12:15.453Z,37.60
2019-03-08T08:15:00.958Z,37.60
2019-03-08T08:17:49.640Z,37.80
2019-03-08T08:20:31.768Z,37.80
2019-03-08T08:23:11.156Z,37.80
2019-03-08T08:25:57.588Z,37.80
2019-03-08T08:28:27.713Z,37.80
2019-03-08T08:31:15.912Z,37.90
2019-03-08T08:33:55.068Z,37.90
2019-03-08T08:36:25.558Z,37.80
2019-03-08T08:39:07.920Z,37.90
2019-03-08T08:41:40.952Z,37.40
2019-03-08T08:44:11.052Z,37.80
2019-03-08T08:46:58.231Z,37.80
2019-03-08T08:49:37.376Z,38.00
2019-03-08T08:52:25.833Z,38.20
2019-03-08T08:54:55.951Z,38.20
2019-03-08T08:57:34.992Z,38.00
2019-03-08T09:00:11.547Z,38.10
2019-03-08T09:02:47.861Z,38.10
2019-03-08T09:05:23.773Z,38.00
2019-03-08T09:08:09.894Z,38.00
2019-03-08T09:10:46.287Z,38.00
2019-03-08T09:13:22.301Z,38.00
2019-03-08T09:16:08.462Z,38.10
2019-03-08T09:18:44.505Z,38.10
2019-03-08T09:21:23.741Z,38.00
2019-03-08T09:24:12.226Z,37.80
2019-03-08T09:26:45.604Z,38.10
2019-03-08T09:29:19.119Z,38.30
2019-03-08T09:31:49.236Z,37.80
2019-03-08T09:34:19.440Z,37.80
2019-03-08T09:36:49.563Z,38.00
2019-03-08T09:39:29.308Z,38.90
2019-03-08T09:41:59.511Z,38.50
2019-03-08T09:44:44.951Z,38.60
2019-03-08T09:47:15.811Z,38.30
2019-03-08T09:49:48.528Z,38.30
2019-03-08T09:52:18.652Z,38.30
2019-03-08T09:55:00.841Z,38.10
2019-03-08T09:57:40.711Z,38.80
2019-03-08T10:00:28.319Z,38.00
2019-03-08T10:03:01.542Z,38.20
2019-03-08T10:05:37.881Z,38.10
2019-03-08T10:08:10.743Z,37.80
2019-03-08T10:10:43.571Z,38.10
2019-03-08T10:13:29.882Z,38.40
2019-03-08T10:16:00.000Z,38.30
2019-03-08T10:18:30.111Z,37.90
2019-03-08T10:21:16.748Z,38.30
2019-03-08T10:23:59.337Z,38.20
2019-03-08T10:26:29.536Z,38.20
2019-03-08T10:29:05.535Z,38.20
2019-03-08T10:31:50.963Z,38.10
2019-03-08T10:34:27.165Z,38.20
2019-03-08T10:37:06.147Z,38.30
2019-03-08T10:39:45.287Z,38.30
2019-03-08T10:42:17.888Z,38.30
2019-03-08T10:45:04.594Z,38.20
2019-03-08T10:47:55.999Z,38.30
2019-03-08T10:50:24.276Z,38.10
2019-03-08T10:53:03.530Z,38.20
2019-03-08T10:55:39.625Z,38.10
2019-03-08T10:58:26.371Z,38.10
2019-03-08T11:01:05.471Z,38.10
2019-03-08T11:03:41.428Z,38.30
2019-03-08T11:11:23.843Z,38.10
2019-03-08T11:14:05.610Z,38.60
2019-03-08T11:16:38.504Z,38.20
2019-03-08T11:19:09.133Z,38.20
2019-03-08T11:21:51.483Z,38.20
2019-03-08T11:24:30.304Z,38.20
2019-03-08T11:27:15.402Z,38.40
2019-03-08T11:29:57.616Z,38.40
2019-03-08T11:32:44.180Z,38.20
2019-03-08T11:35:16.859Z,38.30
2019-03-08T11:37:51.674Z,38.50
2019-03-08T11:40:36.997Z,38.30
2019-03-08T11:43:19.032Z,38.30
2019-03-08T11:45:49.129Z,38.30
2019-03-08T11:48:37.670Z,38.40
2019-03-08T11:51:24.215Z,38.30
